• Join FlightAware (Why Join?)
  • Login
  • US Flag 
12:21AM EDT


 

Airport Tracker/Info


-or-


 

Live Flight TrackerFlight Track Log ✈ N14UH ✈ 29-Apr-2012 ✈ KGLH - 4MS6

Flight Track Log - Related Links

Times and Time Zones

All times are in EDT time to prevent confusion due to time zone crossing. See the N14UH flight status page for this flight to view local times or setup timezone preferences in your user account.

Time Position Orientation Groundspeed Altitude Reporting Facility
EDT Latitude Longitude Course Direction KTS MPH feet Rate Location/Type
09:48AM 33.3364 -90.9739 151° Southeast 116 133 2,900  Level Memphis Center
09:49AM 33.3133 -90.9589 147° Southeast 105 121 3,600 720 Climbing Memphis Center
09:50AM 33.2906 -90.9411 153° Southeast 99 114 4,400 720 Climbing Memphis Center
09:51AM 33.2656 -90.9261 145° Southeast 93 107 5,100 300 Climbing Memphis Center
09:52AM 33.2386 -90.9036 146° Southeast 104 120 5,000 -60 Descending Memphis Center
09:53AM 33.2072 -90.8786 150° Southeast 120 138 5,000  Level Memphis Center
09:54AM 33.1783 -90.8586 144° Southeast 126 145 5,000  Level Memphis Center
09:55AM 33.1492 -90.8336 149° Southeast 126 145 5,000  Level Memphis Center
09:56AM 33.1178 -90.8111 150° Southeast 126 145 5,000  Level Memphis Center
09:57AM 33.0886 -90.7911 144° Southeast 121 139 5,100  Climbing Memphis Center
09:58AM 33.0594 -90.7661 147° Southeast 121 139 5,000 -60 Descending Memphis Center
09:59AM 33.0303 -90.7439 147° Southeast 121 139 5,000  Level Memphis Center
10:00AM 33.0014 -90.7214 150° Southeast 121 139 5,000  Level Memphis Center
10:01AM 32.9722 -90.7014 146° Southeast 126 145 5,000  Level Memphis Center
10:02AM 32.9450 -90.6792 149° Southeast 126 145 5,000  Level Memphis Center
10:03AM 32.9136 -90.6567 147° Southeast 126 145 5,000  Level Memphis Center
10:04AM 32.8844 -90.6344 144° Southeast 126 145 5,000  Level Memphis Center
10:05AM 32.8553 -90.6094 151° Southeast 126 145 5,000  Level Memphis Center
10:06AM 32.8219 -90.5872 147° Southeast 126 145 5,000 -60 Level Memphis Center
10:07AM 32.7928 -90.5650 146° Southeast 126 145 4,900 -300 Descending Memphis Center
10:08AM 32.7617 -90.5400 145° Southeast 126 145 4,500 -420 Descending Memphis Center
10:09AM 32.7325 -90.5153 148° Southeast 126 145 4,100 -420 Descending Memphis Center
10:10AM 32.7031 -90.4931 144° Southeast 126 145 3,700 -480 Descending Memphis Center
10:11AM 32.6739 -90.4683 147° Southeast 126 145 3,200 -480 Descending Memphis Center
10:12AM 32.6447 -90.4461 146° Southeast 121 139 2,800 -420 Descending Memphis Center
10:13AM 32.6133 -90.4214 144° Southeast 121 139 2,400 -420 Descending Memphis Center
10:14AM 32.5842 -90.3967 140° Southeast 121 139 2,000 -180 Descending Memphis Center
10:15AM 32.5550 -90.3672 133° Southeast 126 145 2,100  Climbing Memphis Center
10:16AM 32.5319 -90.3375 138° Southeast 126 145 2,100 -60 Level Memphis Center
10:17AM 32.5069 -90.3106 138° Southeast 126 145 2,000 -120 Descending Memphis Center